This is the latest recevied weather packets stored in our database for station/object OE-11204. If no packets are shown the sender has not sent any weather packets the latest 10 day(s).
| Time | Temp. | Humidity | Pressure | Rain* | Wind** | Luminosity | Snow |
|---|---|---|---|---|---|---|---|
| 1788086115 | 25° C | 56% | 1014.7 hPa | 0 mm | - | 736 W/m² | - |
| 1788085515 | 24.44° C | 56% | 1015 hPa | 0 mm | - | 730 W/m² | - |
| 1788084688 | 23.89° C | 57% | 1015.2 hPa | 0 mm | - | 718 W/m² | - |
| 1788084315 | 23.89° C | 54% | 1015.4 hPa | 0 mm | - | 712 W/m² | - |
| 1788083714 | 23.33° C | 55% | 1015.6 hPa | 0 mm | - | 699 W/m² | - |
| 1788082888 | 23.33° C | 56% | 1015.8 hPa | 0 mm | - | 687 W/m² | - |
| 1788082515 | 23.33° C | 57% | 1016 hPa | 0 mm | - | 668 W/m² | - |
| 1788081914 | 22.78° C | 63% | 1016.1 hPa | 0 mm | - | 662 W/m² | - |
| 1788081088 | 22.78° C | 61% | 1016.4 hPa | 0 mm | - | 644 W/m² | - |
| 1788080714 | 22.78° C | 61% | 1016.5 hPa | 0 mm | - | 625 W/m² | - |
| 1788080115 | 22.22° C | 65% | 1016.7 hPa | 0 mm | - | 606 W/m² | - |
| 1788079288 | 21.67° C | 66% | 1016.8 hPa | 0 mm | - | 588 W/m² | - |
| 1788078914 | 21.11° C | 66% | 1017.1 hPa | 0 mm | - | 569 W/m² | - |
| 1788078315 | 21.11° C | 66% | 1017.3 hPa | 0 mm | - | 545 W/m² | - |
| 1788077487 | 20° C | 71% | 1017.5 hPa | 0 mm | - | 520 W/m² | - |
| 1788077115 | 19.44° C | 75% | 1017.6 hPa | 0 mm | - | 495 W/m² | - |
| 1788076515 | 19.44° C | 76% | 1017.6 hPa | 0 mm | - | 470 W/m² | - |
| 1788075687 | 19.44° C | 76% | 1017.7 hPa | 0 mm | - | 439 W/m² | - |
| 1788075314 | 20° C | 78% | 1017.5 hPa | 0 mm | - | 415 W/m² | - |
| 1788074715 | 19.44° C | 78% | 1017.7 hPa | 0 mm | - | 415 W/m² | - |
| 1788073888 | 18.89° C | 81% | 1017.9 hPa | 0 mm | - | 390 W/m² | - |
| 1788073514 | 17.78° C | 86% | 1018.3 hPa | 0 mm | - | 334 W/m² | - |
| 1788072914 | 17.78° C | 84% | 1018.2 hPa | 0 mm | - | 309 W/m² | - |
| 1788072088 | 17.78° C | 87% | 1018.4 hPa | 0 mm | - | 285 W/m² | - |
| 1788071715 | 17.22° C | 90% | 1018.6 hPa | 0 mm | - | 179 W/m² | - |
* Rain latest hour (hover to see other rain measurements)
** Current wind speed in m/s (hover to see current wind gust speed)